createdAt,value
2023-05-06T00:01:00.683Z,16.70
2023-05-06T00:03:28.170Z,16.60
2023-05-06T00:05:54.752Z,16.60
2023-05-06T00:08:21.453Z,16.60
2023-05-06T00:10:47.978Z,16.60
2023-05-06T00:13:14.603Z,16.50
2023-05-06T00:15:41.251Z,16.50
2023-05-06T00:18:07.894Z,16.50
2023-05-06T00:20:34.511Z,16.50
2023-05-06T00:23:01.331Z,16.50
2023-05-06T00:25:27.883Z,16.50
2023-05-06T00:27:54.460Z,16.50
2023-05-06T00:30:21.065Z,16.50
2023-05-06T00:32:47.608Z,16.50
2023-05-06T00:35:14.145Z,16.60
2023-05-06T00:37:40.799Z,16.60
2023-05-06T00:40:08.004Z,16.60
2023-05-06T00:42:34.526Z,16.50
2023-05-06T00:45:01.237Z,16.50
2023-05-06T00:47:27.850Z,16.50
2023-05-06T00:49:54.395Z,16.50
2023-05-06T00:52:21.035Z,16.40
2023-05-06T00:54:47.605Z,16.40
2023-05-06T00:57:14.154Z,16.40
2023-05-06T00:59:40.774Z,16.40
2023-05-06T01:02:07.323Z,16.40
2023-05-06T01:04:33.923Z,16.40
2023-05-06T01:07:11.640Z,16.30
2023-05-06T01:09:41.194Z,16.40
2023-05-06T01:12:28.984Z,16.30
2023-05-06T01:15:08.448Z,16.30
2023-05-06T01:17:42.375Z,16.30
2023-05-06T01:20:11.835Z,16.30
2023-05-06T01:22:38.925Z,16.30
2023-05-06T01:25:06.324Z,16.30
2023-05-06T01:27:32.873Z,16.30
2023-05-06T01:29:59.616Z,16.30
2023-05-06T01:32:33.616Z,16.30
2023-05-06T01:35:16.896Z,16.30
2023-05-06T01:37:52.474Z,16.30
2023-05-06T01:40:19.562Z,16.30
2023-05-06T01:42:47.576Z,16.40
2023-05-06T01:45:15.434Z,16.40
2023-05-06T01:47:42.024Z,16.40
2023-05-06T01:50:08.840Z,16.40
2023-05-06T01:52:35.353Z,16.40
2023-05-06T01:55:01.917Z,16.50
2023-05-06T01:57:28.532Z,16.40
2023-05-06T01:59:55.150Z,16.40
2023-05-06T02:02:21.794Z,16.50
2023-05-06T02:04:48.369Z,16.40
2023-05-06T02:07:14.884Z,16.40
2023-05-06T02:09:41.406Z,16.40
2023-05-06T02:12:07.973Z,16.40
2023-05-06T02:14:34.566Z,16.40
2023-05-06T02:17:03.515Z,16.50
2023-05-06T02:19:30.049Z,16.40
2023-05-06T02:21:57.519Z,16.50
2023-05-06T02:24:24.953Z,16.50
2023-05-06T02:26:51.484Z,16.50
2023-05-06T02:29:18.011Z,16.50
2023-05-06T02:31:44.616Z,16.50
2023-05-06T02:34:11.195Z,16.50
2023-05-06T02:36:37.725Z,16.50
2023-05-06T02:39:04.720Z,16.50
2023-05-06T02:41:31.280Z,16.50
2023-05-06T02:43:57.789Z,16.50
2023-05-06T02:46:24.415Z,16.50
2023-05-06T02:48:51.003Z,16.40
2023-05-06T02:51:17.569Z,16.40
2023-05-06T02:53:44.096Z,16.30
2023-05-06T02:56:10.689Z,16.30
2023-05-06T02:58:37.228Z,16.20
2023-05-06T03:01:03.932Z,16.20
2023-05-06T03:03:30.546Z,16.20
2023-05-06T03:05:57.096Z,16.20
2023-05-06T03:08:24.156Z,16.20
2023-05-06T03:10:50.797Z,16.20
2023-05-06T03:13:17.363Z,16.10
2023-05-06T03:15:44.197Z,16.20
2023-05-06T03:18:11.348Z,16.10
2023-05-06T03:20:37.947Z,16.10
2023-05-06T03:23:04.505Z,16.10
2023-05-06T03:25:31.011Z,16.00
2023-05-06T03:27:57.545Z,16.00
2023-05-06T03:30:24.085Z,15.90
2023-05-06T03:32:50.671Z,15.80
2023-05-06T03:35:17.232Z,15.80
2023-05-06T03:37:43.800Z,15.70
2023-05-06T03:40:10.465Z,15.70
2023-05-06T03:42:37.050Z,15.60
2023-05-06T03:45:03.944Z,15.60
2023-05-06T03:47:30.766Z,15.50
2023-05-06T03:49:57.348Z,15.50
2023-05-06T03:52:23.864Z,15.50
2023-05-06T03:54:50.474Z,15.40
2023-05-06T03:57:16.984Z,15.40
2023-05-06T03:59:43.498Z,15.30
2023-05-06T04:02:10.076Z,15.30
2023-05-06T04:04:36.627Z,15.30
2023-05-06T04:07:03.785Z,15.30
2023-05-06T04:09:31.562Z,15.30
2023-05-06T04:11:58.094Z,15.30
2023-05-06T04:14:24.604Z,15.30
2023-05-06T04:16:51.164Z,15.30
2023-05-06T04:19:17.963Z,15.40
2023-05-06T04:21:44.577Z,15.40
2023-05-06T04:24:11.509Z,15.50
2023-05-06T04:26:38.182Z,15.60
2023-05-06T04:29:04.733Z,15.70
2023-05-06T04:31:32.584Z,15.70
2023-05-06T04:33:59.173Z,15.80
2023-05-06T04:36:25.803Z,15.90
2023-05-06T04:38:53.212Z,16.00
2023-05-06T04:41:20.513Z,16.50
2023-05-06T04:43:47.093Z,16.60
2023-05-06T04:46:14.257Z,16.60
2023-05-06T04:48:41.377Z,16.60
2023-05-06T04:51:09.205Z,16.70
2023-05-06T04:53:35.763Z,16.90
2023-05-06T04:56:02.285Z,16.90
2023-05-06T04:58:28.800Z,16.90
2023-05-06T05:00:55.445Z,17.10
2023-05-06T05:03:22.149Z,17.20
2023-05-06T05:05:48.810Z,17.40
2023-05-06T05:08:15.426Z,17.50
2023-05-06T05:10:43.322Z,17.60
2023-05-06T05:13:09.907Z,17.80
2023-05-06T05:15:37.631Z,18.00
2023-05-06T05:18:04.286Z,18.20
2023-05-06T05:20:30.834Z,18.50
2023-05-06T05:22:57.465Z,18.80
2023-05-06T05:25:23.997Z,19.40
2023-05-06T05:27:50.615Z,19.80
2023-05-06T05:30:17.155Z,20.70
2023-05-06T05:32:43.701Z,21.60
2023-05-06T05:35:10.697Z,22.80
2023-05-06T05:37:37.477Z,24.40
2023-05-06T05:40:04.631Z,25.70
2023-05-06T05:42:33.672Z,26.00
2023-05-06T05:45:00.469Z,26.30
2023-05-06T05:47:27.069Z,27.90
2023-05-06T05:49:54.243Z,27.50
2023-05-06T05:52:20.897Z,27.70
2023-05-06T05:54:47.398Z,27.80
2023-05-06T05:57:13.921Z,27.90
2023-05-06T05:59:40.448Z,28.90
2023-05-06T06:02:06.976Z,29.20
2023-05-06T06:04:33.566Z,28.70
2023-05-06T06:07:01.855Z,27.30
2023-05-06T06:09:28.440Z,26.90
2023-05-06T06:11:55.002Z,27.10
2023-05-06T06:14:21.546Z,26.90
2023-05-06T06:16:48.089Z,26.70
2023-05-06T06:19:15.150Z,26.60
2023-05-06T06:21:41.719Z,26.60
2023-05-06T06:24:08.275Z,26.40
2023-05-06T06:26:34.788Z,26.20
2023-05-06T06:29:01.366Z,26.10
2023-05-06T06:31:29.191Z,25.90
2023-05-06T06:33:56.020Z,25.80
2023-05-06T06:36:22.694Z,25.50
2023-05-06T06:38:49.307Z,25.30
2023-05-06T06:41:16.157Z,25.00
2023-05-06T06:43:43.255Z,24.80
2023-05-06T06:46:10.079Z,24.70
2023-05-06T06:48:37.017Z,24.70
2023-05-06T06:51:03.715Z,24.50
2023-05-06T06:53:30.245Z,24.40
2023-05-06T06:55:56.802Z,24.30
2023-05-06T06:58:23.435Z,24.20
2023-05-06T07:00:50.008Z,24.30
2023-05-06T07:03:19.277Z,24.60
2023-05-06T07:05:45.998Z,25.00
2023-05-06T07:08:12.517Z,25.30
2023-05-06T07:10:39.048Z,25.40
2023-05-06T07:13:05.633Z,25.60
2023-05-06T07:15:32.163Z,25.60
2023-05-06T07:17:58.730Z,25.50
2023-05-06T07:20:25.703Z,25.60
2023-05-06T07:22:52.278Z,25.70
2023-05-06T07:25:18.826Z,25.70
2023-05-06T07:27:45.425Z,25.80
2023-05-06T07:30:12.080Z,25.70
2023-05-06T07:32:40.438Z,25.80
2023-05-06T07:35:07.209Z,25.70
2023-05-06T07:37:33.779Z,25.70
2023-05-06T07:40:00.413Z,25.80
2023-05-06T07:42:26.943Z,25.90
2023-05-06T07:44:53.511Z,26.00
2023-05-06T07:47:29.771Z,26.10
2023-05-06T07:49:56.667Z,26.20
2023-05-06T07:52:24.125Z,26.30
2023-05-06T07:54:50.694Z,26.40
2023-05-06T07:57:17.397Z,26.40
2023-05-06T07:59:44.463Z,26.50
2023-05-06T08:02:10.991Z,26.60
2023-05-06T08:04:37.664Z,26.70
2023-05-06T08:07:04.325Z,26.50
2023-05-06T08:09:30.884Z,26.50
2023-05-06T08:11:58.241Z,26.30
2023-05-06T08:14:28.015Z,26.10
2023-05-06T08:16:55.126Z,26.00
2023-05-06T08:19:21.751Z,26.10
2023-05-06T08:21:48.681Z,26.20
2023-05-06T08:24:15.280Z,26.00
2023-05-06T08:26:41.863Z,25.80
2023-05-06T08:29:08.396Z,25.60
2023-05-06T08:31:35.007Z,25.40
2023-05-06T08:34:01.542Z,25.50
2023-05-06T08:36:28.081Z,25.50
2023-05-06T08:38:54.646Z,25.60
2023-05-06T08:41:21.704Z,25.80
2023-05-06T08:43:48.938Z,26.00
2023-05-06T08:46:15.751Z,26.10
2023-05-06T08:48:42.819Z,26.10
2023-05-06T08:51:09.378Z,26.10
2023-05-06T08:53:35.905Z,26.00
2023-05-06T08:56:04.089Z,26.00
2023-05-06T08:58:34.170Z,26.00
2023-05-06T09:01:01.056Z,25.90
2023-05-06T09:03:27.790Z,25.90
2023-05-06T09:05:54.496Z,25.80
2023-05-06T09:08:21.347Z,25.80
2023-05-06T09:10:47.894Z,25.90
2023-05-06T09:13:15.877Z,26.00
2023-05-06T09:15:43.393Z,26.10
2023-05-06T09:18:10.765Z,26.30
2023-05-06T09:20:41.072Z,26.40
2023-05-06T09:23:09.435Z,26.70
2023-05-06T09:25:36.714Z,26.70
2023-05-06T09:28:04.407Z,26.70
2023-05-06T09:30:31.077Z,26.60
2023-05-06T09:32:57.692Z,26.40
2023-05-06T09:35:28.357Z,26.30
2023-05-06T09:37:55.557Z,26.30
2023-05-06T09:40:26.235Z,26.30
2023-05-06T09:42:52.843Z,26.30
2023-05-06T09:45:19.387Z,26.30
2023-05-06T09:47:46.541Z,26.20
2023-05-06T09:50:13.820Z,26.30
2023-05-06T09:52:40.336Z,26.50
2023-05-06T09:55:07.305Z,26.70
2023-05-06T09:57:34.090Z,26.80
2023-05-06T10:00:02.168Z,26.90
2023-05-06T10:02:29.013Z,27.10
2023-05-06T10:04:57.166Z,27.20
2023-05-06T10:07:25.570Z,27.30
2023-05-06T10:09:53.945Z,27.30
2023-05-06T10:12:21.146Z,27.30
2023-05-06T10:14:49.449Z,27.30
2023-05-06T10:17:18.011Z,27.10
2023-05-06T10:19:49.393Z,27.00
2023-05-06T10:22:51.848Z,27.00
2023-05-06T10:25:30.595Z,27.00
2023-05-06T10:27:57.804Z,27.00
2023-05-06T10:30:24.798Z,27.10
2023-05-06T10:32:52.170Z,27.10
2023-05-06T10:35:39.021Z,27.00
2023-05-06T10:38:07.876Z,27.00
2023-05-06T10:40:34.503Z,27.20
2023-05-06T10:43:19.642Z,27.30
2023-05-06T10:46:01.681Z,27.50
2023-05-06T10:48:28.668Z,27.70
2023-05-06T10:51:13.813Z,27.60
2023-05-06T10:53:59.398Z,27.40
2023-05-06T10:56:26.538Z,27.30
2023-05-06T10:58:54.198Z,27.20
2023-05-06T11:01:22.097Z,27.10
2023-05-06T11:03:49.832Z,26.90
2023-05-06T11:06:31.693Z,26.70
2023-05-06T11:08:58.277Z,26.70
2023-05-06T11:11:43.484Z,26.70
2023-05-06T11:14:13.425Z,26.70
2023-05-06T11:16:47.262Z,27.00
2023-05-06T11:19:24.290Z,27.20
2023-05-06T11:21:51.367Z,27.30
2023-05-06T11:24:22.709Z,27.20
2023-05-06T11:26:49.615Z,27.10
2023-05-06T11:29:17.019Z,26.90
2023-05-06T11:31:44.629Z,26.70
2023-05-06T11:34:12.437Z,26.60
2023-05-06T11:36:49.091Z,26.40
2023-05-06T11:39:15.708Z,26.30
2023-05-06T11:41:42.356Z,26.30
2023-05-06T11:44:11.447Z,26.30
2023-05-06T11:46:38.263Z,26.50
2023-05-06T11:49:04.966Z,26.50
2023-05-06T11:51:32.535Z,26.50
2023-05-06T11:54:06.870Z,26.50
2023-05-06T11:56:52.764Z,26.60
2023-05-06T11:59:26.942Z,26.70
2023-05-06T12:01:53.514Z,26.90
2023-05-06T12:04:20.079Z,27.00
2023-05-06T12:06:46.628Z,26.90
2023-05-06T12:09:13.497Z,26.80
2023-05-06T12:11:41.624Z,26.80
2023-05-06T12:14:10.220Z,26.80
2023-05-06T12:16:37.479Z,26.90
2023-05-06T12:19:04.126Z,26.90
2023-05-06T12:21:30.922Z,26.90
2023-05-06T12:23:59.205Z,26.90
2023-05-06T12:26:27.355Z,27.00
2023-05-06T12:29:10.862Z,27.10
2023-05-06T12:31:37.477Z,27.10
2023-05-06T12:34:04.622Z,27.20
2023-05-06T12:36:32.441Z,27.20
2023-05-06T12:39:01.838Z,27.30
2023-05-06T12:41:39.783Z,27.40
2023-05-06T12:44:26.662Z,27.50
2023-05-06T12:46:53.258Z,27.60
2023-05-06T12:49:19.827Z,27.60
2023-05-06T12:51:47.730Z,27.50
2023-05-06T12:54:30.437Z,27.50
2023-05-06T12:56:57.268Z,27.60
2023-05-06T12:59:27.056Z,27.80
2023-05-06T13:01:53.610Z,27.70
2023-05-06T13:04:21.212Z,27.60
2023-05-06T13:06:47.747Z,27.40
2023-05-06T13:09:15.375Z,27.40
2023-05-06T13:11:42.060Z,27.20
2023-05-06T13:14:09.066Z,27.10
2023-05-06T13:16:35.763Z,26.90
2023-05-06T13:19:03.016Z,26.90
2023-05-06T13:21:29.538Z,26.80
2023-05-06T13:23:56.107Z,26.90
2023-05-06T13:26:22.625Z,27.00
2023-05-06T13:28:49.332Z,27.10
2023-05-06T13:31:15.974Z,27.20
2023-05-06T13:33:42.526Z,27.20
2023-05-06T13:36:09.197Z,27.30
2023-05-06T13:38:35.766Z,27.40
2023-05-06T13:41:02.304Z,27.50
2023-05-06T13:43:28.849Z,27.70
2023-05-06T13:45:55.523Z,27.80
2023-05-06T13:48:22.098Z,27.90
2023-05-06T13:50:48.755Z,28.00
2023-05-06T13:53:15.342Z,28.00
2023-05-06T13:55:42.754Z,28.10
2023-05-06T13:58:09.414Z,28.20
2023-05-06T14:00:36.247Z,28.20
2023-05-06T14:03:02.865Z,28.20
2023-05-06T14:05:29.485Z,28.20
2023-05-06T14:07:56.027Z,28.20
2023-05-06T14:10:22.547Z,28.10
2023-05-06T14:12:49.153Z,28.10
2023-05-06T14:15:15.739Z,28.00
2023-05-06T14:17:42.541Z,27.90
2023-05-06T14:20:09.568Z,27.80
2023-05-06T14:22:36.835Z,27.70
2023-05-06T14:25:03.453Z,27.70
2023-05-06T14:27:30.168Z,27.70
2023-05-06T14:29:56.752Z,27.70
2023-05-06T14:32:23.309Z,27.60
2023-05-06T14:34:49.862Z,27.50
2023-05-06T14:37:16.544Z,27.50
2023-05-06T14:39:43.041Z,27.30
2023-05-06T14:42:09.989Z,27.30
2023-05-06T14:44:36.489Z,27.20
2023-05-06T14:47:03.124Z,27.10
2023-05-06T14:49:29.652Z,27.20
2023-05-06T14:51:57.122Z,27.10
2023-05-06T14:54:23.631Z,27.10
2023-05-06T14:56:50.304Z,27.10
2023-05-06T14:59:18.237Z,27.00
2023-05-06T15:01:44.777Z,27.00
2023-05-06T15:04:11.388Z,26.90
2023-05-06T15:06:37.966Z,26.90
2023-05-06T15:09:04.748Z,26.80
2023-05-06T15:11:31.829Z,26.80
2023-05-06T15:13:58.445Z,26.80
2023-05-06T15:16:24.976Z,26.90
2023-05-06T15:18:51.523Z,27.00
2023-05-06T15:21:18.045Z,27.00
2023-05-06T15:23:46.262Z,27.00
2023-05-06T15:26:12.935Z,27.00
2023-05-06T15:28:39.442Z,27.00
2023-05-06T15:31:05.970Z,27.00
2023-05-06T15:33:32.514Z,27.00
2023-05-06T15:35:59.024Z,27.00
2023-05-06T15:38:25.579Z,26.90
2023-05-06T15:40:52.268Z,26.90
2023-05-06T15:43:23.667Z,26.80
2023-05-06T15:45:50.818Z,26.80
2023-05-06T15:48:17.428Z,26.80
2023-05-06T15:50:43.983Z,26.80
2023-05-06T15:53:11.283Z,26.70
2023-05-06T15:55:46.599Z,26.70
2023-05-06T15:58:19.296Z,26.70
2023-05-06T16:00:45.907Z,26.60
2023-05-06T16:03:13.003Z,26.50
2023-05-06T16:05:39.719Z,26.50
2023-05-06T16:08:06.279Z,26.50
2023-05-06T16:10:33.753Z,26.40
2023-05-06T16:13:00.360Z,26.40
2023-05-06T16:15:27.031Z,26.40
2023-05-06T16:17:53.593Z,26.20
2023-05-06T16:20:20.191Z,26.20
2023-05-06T16:22:50.245Z,26.20
2023-05-06T16:25:16.880Z,26.20
2023-05-06T16:27:43.432Z,26.00
2023-05-06T16:30:10.311Z,26.00
2023-05-06T16:32:36.975Z,25.90
2023-05-06T16:35:03.665Z,25.80
2023-05-06T16:37:30.197Z,25.70
2023-05-06T16:39:56.746Z,25.60
2023-05-06T16:42:23.304Z,25.50
2023-05-06T16:44:49.938Z,25.40
2023-05-06T16:47:16.720Z,25.40
2023-05-06T16:49:43.374Z,25.30
2023-05-06T16:52:09.904Z,25.30
2023-05-06T16:54:36.723Z,25.20
2023-05-06T16:57:03.796Z,25.20
2023-05-06T16:59:30.453Z,25.00
2023-05-06T17:01:56.982Z,25.00
2023-05-06T17:04:24.785Z,24.90
2023-05-06T17:06:51.324Z,24.80
2023-05-06T17:09:17.952Z,24.70
2023-05-06T17:11:44.483Z,24.60
2023-05-06T17:14:14.094Z,24.50
2023-05-06T17:16:41.552Z,24.40
2023-05-06T17:19:08.316Z,24.40
2023-05-06T17:21:34.852Z,24.30
2023-05-06T17:24:01.415Z,24.20
2023-05-06T17:26:27.938Z,24.20
2023-05-06T17:28:54.671Z,24.10
2023-05-06T17:31:21.393Z,24.00
2023-05-06T17:33:48.029Z,23.90
2023-05-06T17:36:16.587Z,23.80
2023-05-06T17:38:43.178Z,23.70
2023-05-06T17:41:09.937Z,23.60
2023-05-06T17:43:36.585Z,23.50
2023-05-06T17:46:03.129Z,23.40
2023-05-06T17:48:29.947Z,23.30
2023-05-06T17:51:02.856Z,23.20
2023-05-06T17:53:29.630Z,23.10
2023-05-06T17:55:56.204Z,22.90
2023-05-06T17:58:23.284Z,22.70
2023-05-06T18:00:49.821Z,22.60
2023-05-06T18:03:16.451Z,22.40
2023-05-06T18:05:43.061Z,22.30
2023-05-06T18:08:09.660Z,22.20
2023-05-06T18:10:36.338Z,22.20
2023-05-06T18:13:03.680Z,22.10
2023-05-06T18:15:30.273Z,22.00
2023-05-06T18:17:57.040Z,22.00
2023-05-06T18:20:23.658Z,21.90
2023-05-06T18:22:50.228Z,21.80
2023-05-06T18:25:16.765Z,21.70
2023-05-06T18:27:43.478Z,21.70
2023-05-06T18:30:10.216Z,21.60
2023-05-06T18:32:36.761Z,21.50
2023-05-06T18:35:03.358Z,21.30
2023-05-06T18:37:29.912Z,21.20
2023-05-06T18:39:56.522Z,21.00
2023-05-06T18:42:23.123Z,20.90
2023-05-06T18:44:52.998Z,20.80
2023-05-06T18:47:19.764Z,20.70
2023-05-06T18:49:46.289Z,20.60
2023-05-06T18:52:14.842Z,20.50
2023-05-06T18:54:41.512Z,20.50
2023-05-06T18:57:08.150Z,20.40
2023-05-06T18:59:35.856Z,20.30
2023-05-06T19:02:03.848Z,20.30
2023-05-06T19:04:31.420Z,20.20
2023-05-06T19:06:58.071Z,20.10
2023-05-06T19:09:24.584Z,20.10
2023-05-06T19:11:51.133Z,20.00
2023-05-06T19:14:17.633Z,20.00
2023-05-06T19:16:44.169Z,19.90
2023-05-06T19:19:11.213Z,19.90
2023-05-06T19:21:38.476Z,19.80
2023-05-06T19:24:07.867Z,19.70
2023-05-06T19:26:34.526Z,19.70
2023-05-06T19:29:01.043Z,19.70
2023-05-06T19:31:27.656Z,19.60
2023-05-06T19:33:54.285Z,19.60
2023-05-06T19:36:20.876Z,19.50
2023-05-06T19:38:47.448Z,19.40
2023-05-06T19:41:14.007Z,19.40
2023-05-06T19:43:44.001Z,19.20
2023-05-06T19:46:11.008Z,19.20
2023-05-06T19:48:38.869Z,19.10
2023-05-06T19:51:06.547Z,19.00
2023-05-06T19:53:34.084Z,19.00
2023-05-06T19:56:10.595Z,18.80
2023-05-06T19:58:37.265Z,18.80
2023-05-06T20:01:03.796Z,18.70
2023-05-06T20:03:31.435Z,18.70
2023-05-06T20:05:58.560Z,18.60
2023-05-06T20:08:25.100Z,18.50
2023-05-06T20:10:51.653Z,18.40
2023-05-06T20:13:18.223Z,18.30
2023-05-06T20:15:44.967Z,18.30
2023-05-06T20:18:11.608Z,18.20
2023-05-06T20:20:39.801Z,18.10
2023-05-06T20:23:06.502Z,18.10
2023-05-06T20:25:33.900Z,18.00
2023-05-06T20:28:00.437Z,18.00
2023-05-06T20:30:27.235Z,17.90
2023-05-06T20:32:53.920Z,17.80
2023-05-06T20:35:20.593Z,17.80
2023-05-06T20:37:47.174Z,17.70
2023-05-06T20:40:14.162Z,17.70
2023-05-06T20:42:40.934Z,17.70
2023-05-06T20:45:07.963Z,17.60
2023-05-06T20:47:35.198Z,17.50
2023-05-06T20:50:02.230Z,17.50
2023-05-06T20:52:28.781Z,17.40
2023-05-06T20:54:55.491Z,17.40
2023-05-06T20:57:22.153Z,17.30
2023-05-06T20:59:51.041Z,17.30
2023-05-06T21:02:17.717Z,17.20
2023-05-06T21:04:44.290Z,17.20
2023-05-06T21:07:10.834Z,17.10
2023-05-06T21:09:38.202Z,17.00
2023-05-06T21:12:05.037Z,17.00
2023-05-06T21:14:31.569Z,16.90
2023-05-06T21:16:58.119Z,16.80
2023-05-06T21:19:24.613Z,16.80
2023-05-06T21:21:51.341Z,16.80
2023-05-06T21:24:17.863Z,16.70
2023-05-06T21:26:44.464Z,16.70
2023-05-06T21:29:11.020Z,16.70
2023-05-06T21:31:37.725Z,16.70
2023-05-06T21:34:07.494Z,16.60
2023-05-06T21:36:35.457Z,16.60
2023-05-06T21:39:11.971Z,16.50
2023-05-06T21:41:38.972Z,16.50
2023-05-06T21:44:06.298Z,16.40
2023-05-06T21:46:33.295Z,16.40
2023-05-06T21:49:00.332Z,16.30
2023-05-06T21:51:28.008Z,16.30
2023-05-06T21:53:54.661Z,16.30
2023-05-06T21:56:22.143Z,16.20
2023-05-06T21:58:48.841Z,16.20
2023-05-06T22:01:15.563Z,16.10
2023-05-06T22:03:42.245Z,16.10
2023-05-06T22:06:08.805Z,16.10
2023-05-06T22:08:35.319Z,16.00
2023-05-06T22:11:01.854Z,15.90
2023-05-06T22:13:28.546Z,15.80
2023-05-06T22:15:55.217Z,15.80
2023-05-06T22:18:21.918Z,15.80
2023-05-06T22:20:50.622Z,15.80
2023-05-06T22:23:19.118Z,15.70
2023-05-06T22:25:46.041Z,15.70
2023-05-06T22:28:12.590Z,15.70
2023-05-06T22:30:39.126Z,15.70
2023-05-06T22:33:06.036Z,15.60
2023-05-06T22:35:32.665Z,15.60
2023-05-06T22:37:59.223Z,15.60
2023-05-06T22:40:27.733Z,15.60
2023-05-06T22:42:54.351Z,15.60
2023-05-06T22:45:21.008Z,15.70
2023-05-06T22:47:47.541Z,15.60
2023-05-06T22:50:14.130Z,15.70
2023-05-06T22:52:40.971Z,15.60
2023-05-06T22:55:09.650Z,15.70
2023-05-06T22:57:36.557Z,15.70
2023-05-06T23:00:03.912Z,15.70
2023-05-06T23:02:30.703Z,15.70
2023-05-06T23:04:57.543Z,15.60
2023-05-06T23:07:24.079Z,15.70
2023-05-06T23:09:50.724Z,15.60
2023-05-06T23:12:17.253Z,15.60
2023-05-06T23:14:43.767Z,15.60
2023-05-06T23:17:10.405Z,15.60
2023-05-06T23:19:37.026Z,15.60
2023-05-06T23:22:04.511Z,15.60
2023-05-06T23:24:31.049Z,15.60
2023-05-06T23:26:57.626Z,15.60
2023-05-06T23:29:24.127Z,15.60
2023-05-06T23:31:50.703Z,15.60
2023-05-06T23:34:17.254Z,15.60
2023-05-06T23:36:43.820Z,15.70
2023-05-06T23:39:12.208Z,15.70
2023-05-06T23:41:38.851Z,15.70
2023-05-06T23:44:05.888Z,15.70
2023-05-06T23:46:32.667Z,15.70
2023-05-06T23:48:59.251Z,15.70
2023-05-06T23:51:26.516Z,15.70
2023-05-06T23:53:53.114Z,15.70
2023-05-06T23:56:21.572Z,15.70
2023-05-06T23:58:48.167Z,15.70
